Flight Track Log - Related Links

Times and Time Zones

All times are in EDT time to prevent confusion due to time zone crossing. See the AAY842 flight status page for this flight to view local times or setup timezone preferences in your user account.

Time Position Orientation Groundspeed Altitude Reporting Facility
EDT Latitude Longitude Course Direction KTS MPH feet Rate Location/Type
Mon 03:24:10 PM 27.9333 -82.7000 North 155 178 1,200  Level Tampa TRACON
Mon 03:25:41 PM 28.0167 -82.6667 19° North 253 291 3,500 2,106 Climbing Tampa TRACON
Mon 03:26:41 PM 28.0833 -82.6500 12° North 273 314 6,500 2,663 Climbing Tampa TRACON
Mon 03:28:21 PM 28.2144 -82.6358 North 300 345 10,600 2,063 Climbing Jacksonville Center
Mon 03:29:00 PM 28.7191 -82.6354 North  Level FlightAware Approximate
Mon 03:29:21 PM 28.3019 -82.6261 North 300 345 12,000  Level Jacksonville Center
Mon 03:30:21 PM 28.4022 -82.6142 North 333 383 14,200 2,100 Climbing Jacksonville Center
Mon 03:31:21 PM 28.5003 -82.6019 North 345 397 16,200 1,850 Climbing Jacksonville Center
Mon 03:32:21 PM 28.6044 -82.6136 354° North 361 415 17,900 1,750 Climbing Jacksonville Center
Mon 03:33:21 PM 28.7089 -82.6275 353° North 367 422 19,700 1,800 Climbing Jacksonville Center
Mon 03:34:21 PM 28.8133 -82.6389 355° North 372 428 21,500 1,700 Climbing Jacksonville Center
Mon 03:35:21 PM 28.9261 -82.6483 356° North 382 440 23,100 1,500 Climbing Jacksonville Center
Mon 03:36:21 PM 29.0367 -82.6575 356° North 394 453 24,500 1,150 Climbing Jacksonville Center
Mon 03:37:21 PM 29.1556 -82.6692 355° North 411 473 25,400 1,050 Climbing Jacksonville Center
Mon 03:38:21 PM 29.2767 -82.6808 355° North 422 486 26,600 1,300 Climbing Jacksonville Center
Mon 03:39:21 PM 29.4000 -82.6922 355° North 433 498 28,000 1,200 Climbing Jacksonville Center
Mon 03:40:21 PM 29.5169 -82.7064 354° North 451 519 29,000 1,150 Climbing Jacksonville Center
Mon 03:41:21 PM 29.6422 -82.7158 356° North 457 526 30,300 1,400 Climbing Jacksonville Center
Mon 03:42:21 PM 29.7675 -82.7228 357° North 457 526 31,800 1,350 Climbing Jacksonville Center
Mon 03:43:21 PM 29.8886 -82.7272 358° North 451 519 33,000 1,100 Climbing Jacksonville Center
Mon 03:44:21 PM 30.0139 -82.7367 356° North 445 512 34,000 1,000 Climbing Jacksonville Center
Mon 03:45:21 PM 30.1369 -82.7389 359° North 440 506 35,000 1,000 Climbing Jacksonville Center
Mon 03:46:21 PM 30.2561 -82.7339 North 440 506 36,000 950 Climbing Jacksonville Center
Mon 03:47:21 PM 30.3686 -82.6567 31° Northeast 440 506 36,900 500 Climbing Jacksonville Center
Mon 03:48:21 PM 30.4750 -82.5792 32° Northeast 435 501 37,000 50 Climbing Jacksonville Center
Mon 03:49:21 PM 30.5897 -82.5208 24° Northeast 440 506 37,000  Level Jacksonville Center
Mon 03:50:21 PM 30.7189 -82.4697 19° North 445 512 37,000  Level Jacksonville Center
Mon 03:51:21 PM 30.8378 -82.4231 19° North 445 512 37,000  Level Jacksonville Center
Mon 03:52:21 PM 30.9544 -82.3789 18° North 445 512 37,000  Level Jacksonville Center
Mon 03:53:21 PM 31.0733 -82.3297 20° North 445 512 37,000  Level Jacksonville Center
Mon 03:54:21 PM 31.1900 -82.2831 19° North 445 512 37,000  Level Jacksonville Center
Mon 03:55:21 PM 31.3089 -82.2433 16° North 445 512 37,000  Level Jacksonville Center
Mon 03:56:21 PM 31.4275 -82.1914 20° North 445 512 37,000 -50 Level Jacksonville Center
Mon 03:57:21 PM 31.5442 -82.1467 18° North 435 501 36,900  Descending Jacksonville Center
Mon 03:58:21 PM 31.6631 -82.0944 20° North 441 507 37,000 50 Climbing Jacksonville Center
Mon 03:59:21 PM 31.7817 -82.0469 19° North 447 514 37,000  Level Jacksonville Center
Mon 04:00:21 PM 31.8858 -82.0044 19° North 447 514 37,000  Level Jacksonville Center
Mon 04:01:21 PM 32.0147 -81.9517 19° North 442 509 37,000  Level Jacksonville Center
Mon 04:02:21 PM 32.1208 -81.8992 23° Northeast 449 517 37,000  Level Jacksonville Center
Mon 04:03:21 PM 32.2497 -81.8386 22° Northeast 449 517 37,000  Level Jacksonville Center
Mon 04:04:21 PM 32.3683 -81.7833 21° North 449 517 37,000  Level Jacksonville Center
Mon 04:05:21 PM 32.4703 -81.7328 23° Northeast 449 517 37,000  Level Jacksonville Center
Mon 04:06:21 PM 32.5992 -81.6719 22° Northeast 449 517 37,000  Level Jacksonville Center
Mon 04:07:21 PM 32.7175 -81.6136 23° Northeast 449 517 37,000  Level Jacksonville Center
Mon 04:08:21 PM 32.8317 -81.5600 22° Northeast 449 517 37,000  Level Jacksonville Center
Mon 04:09:21 PM 32.9481 -81.5039 22° Northeast 449 517 37,000  Level Jacksonville Center
Mon 04:15:29 PM 33.6629 -81.1501 22° Northeast 451 519 37,000  Level FlightAware ADS-B (EFHN)
Mon 04:15:59 PM 33.7203 -81.1217 23° Northeast 450 518 37,000  Level FlightAware ADS-B (EFHN)
Mon 04:16:29 PM 33.7778 -81.0932 22° Northeast 449 517 37,000  Level FlightAware ADS-B (EFHN)
Mon 04:17:13 PM 33.8627 -81.0511 23° Northeast 449 517 37,000  Level FlightAware ADS-B (EFHN)
Mon 04:17:43 PM 33.9216 -81.0225 22° Northeast 449 517 37,000  Level FlightAware ADS-B (EFHN)
Mon 04:18:14 PM 33.9798 -80.9948 22° Northeast 449 517 37,000  Level FlightAware ADS-B (EFHN)
Mon 04:18:55 PM 34.0598 -80.9565 22° Northeast 449 517 37,000  Level FlightAware ADS-B (EFHN)
Mon 04:19:38 PM 34.1426 -80.9165 22° Northeast 448 516 37,000  Level FlightAware ADS-B (EFHN)
Mon 04:20:15 PM 34.2101 -80.8841 22° Northeast 447 514 37,000  Level FlightAware ADS-B (EFHN)
Mon 04:21:08 PM 34.3166 -80.8325 22° Northeast 446 513 37,000  Level FlightAware ADS-B (EFHN)
Mon 04:21:44 PM 34.3840 -80.7999 22° Northeast 445 512 37,000  Level FlightAware ADS-B (EFHN)
Mon 04:22:25 PM 34.4634 -80.7616 22° Northeast 444 511 37,000  Level FlightAware ADS-B (EFHN)
Mon 04:22:55 PM 34.5203 -80.7338 22° Northeast 445 512 37,000  Level FlightAware ADS-B (EFHN)
Mon 04:23:58 PM 34.6420 -80.6744 22° Northeast 446 513 37,000  Level FlightAware ADS-B (EFHN)
Mon 04:24:38 PM 34.7170 -80.6378 22° Northeast 446 513 37,000  Level FlightAware ADS-B (EFHN)
Mon 04:25:08 PM 34.7755 -80.6091 22° Northeast 446 513 37,000  Level FlightAware ADS-B (EFHN)
Mon 04:25:43 PM 34.8430 -80.5760 22° Northeast 446 513 37,000  Level FlightAware ADS-B (EFHN)
Mon 04:27:05 PM 34.9789 -80.5100 22° Northeast 446 513 37,000  Level Atlanta Center
Mon 04:28:05 PM 35.0942 -80.4544 22° Northeast 446 513 37,000  Level Atlanta Center
Mon 04:29:05 PM 35.2114 -80.3961 22° Northeast 446 513 37,000  Level Atlanta Center
Mon 04:30:05 PM 35.3267 -80.3375 23° Northeast 446 513 37,000  Level Atlanta Center
Mon 04:31:05 PM 35.4394 -80.2789 23° Northeast 446 513 37,000  Level Atlanta Center
Mon 04:32:05 PM 35.5567 -80.2225 21° North 446 513 37,000  Level Atlanta Center
Mon 04:34:01 PM 35.7872 -80.1036 23° Northeast 446 513 37,000  Level Washington Center
Mon 04:35:02 PM 35.8956 -80.0561 20° North 446 513 37,000  Level Washington Center
Mon 04:36:00 PM 36.0122 -79.9983 22° Northeast 441 507 37,000  Level Washington Center
Mon 04:37:00 PM 36.1214 -79.9222 29° Northeast 441 507 37,000  Level Washington Center
Mon 04:38:01 PM 36.2306 -79.8483 29° Northeast 447 514 37,000  Level Washington Center
Mon 04:39:01 PM 36.3472 -79.7931 21° North 442 509 37,000  Level Washington Center
Mon 04:40:01 PM 36.4728 -79.7272 23° Northeast 442 509 37,000  Level Washington Center
Mon 04:41:01 PM 36.5894 -79.6689 22° Northeast 442 509 37,000  Level Washington Center
Mon 04:42:02 PM 36.7042 -79.6128 21° North 442 509 37,000  Level Washington Center
Mon 04:43:00 PM 36.8103 -79.5586 22° Northeast 442 509 37,000  Level Washington Center
Mon 04:44:01 PM 36.9267 -79.5022 21° North 442 509 37,000  Level Washington Center
Mon 04:45:01 PM 37.0433 -79.4456 21° North 442 509 37,000  Level Washington Center
Mon 04:46:02 PM 37.1686 -79.3817 22° Northeast 442 509 37,000  Level Washington Center
Mon 04:47:02 PM 37.2831 -79.3219 23° Northeast 437 503 37,000  Level Washington Center
Mon 04:48:03 PM 37.4017 -79.2625 22° Northeast 442 509 37,000  Level Washington Center
Mon 04:49:01 PM 37.5203 -79.2078 20° North 442 509 37,000  Level Washington Center
Mon 04:55:00 PM 38.2107 -78.8505 22° Northeast 444 511 37,000  Level FlightAware ADS-B (KCHO)
Mon 04:56:00 PM 38.3203 -78.7967 22° Northeast 429 494 37,000  Level Washington Center
Mon 04:57:01 PM 38.4322 -78.7378 22° Northeast 429 494 37,000  Level Washington Center
Mon 05:02:27 PM 39.0580 -78.4064 22° Northeast 447 514 37,000  Level FlightAware ADS-B (KDAA)
Mon 05:02:57 PM 39.1167 -78.3753 22° Northeast 447 514 37,000  Level FlightAware ADS-B (KDAA)
Mon 05:03:25 PM 39.1758 -78.3439 22° Northeast 446 513 37,000  Level FlightAware ADS-B (KDAA)
Mon 05:03:57 PM 39.2327 -78.3135 22° Northeast 446 513 37,000  Level FlightAware ADS-B (KDAA)
Mon 05:04:27 PM 39.2939 -78.2808 22° Northeast 446 513 37,000  Level FlightAware ADS-B (KDAA)
Mon 05:06:54 PM 39.5614 -78.1370 22° Northeast 448 516 37,000  Level FlightAware ADS-B (KDAA)
Mon 05:07:29 PM 39.6311 -78.1006 22° Northeast 447 514 37,000  Level Cleveland Center
Mon 05:08:31 PM 39.7461 -78.0378 23° Northeast 447 514 37,000  Level Cleveland Center
Mon 05:09:33 PM 39.8617 -77.9753 23° Northeast 447 514 37,000 -387 Level Cleveland Center
Mon 05:10:35 PM 39.9764 -77.9122 23° Northeast 447 514 36,200 -871 Descending Cleveland Center
Mon 05:11:37 PM 40.0925 -77.8475 23° Northeast 448 516 35,200 -1,328 Descending Cleveland Center
Mon 05:16:50 PM 40.6793 -77.4355 43° Northeast 425 489 27,900 -1,287 Descending FlightAware ADS-B
Mon 05:17:50 PM 40.7517 -77.3464 43° Northeast 423 487 27,200 -443 Descending Cleveland Center
Mon 05:18:52 PM 40.8539 -77.2822 25° Northeast 412 474 27,000 -792 Descending Cleveland Center
Mon 05:25:02 PM 41.5060 -76.9510 21° North 384 442 21,500 -885 Descending FlightAware ADS-B
Mon 05:25:32 PM 41.5550 -76.9260 20° North 382 440 21,100 -554 Descending FlightAware ADS-B
Mon 05:26:07 PM 41.6130 -76.8960 21° North 383 441 20,900 -963 Descending FlightAware ADS-B
Mon 05:26:53 PM 41.6860 -76.8580 21° North 374 430 19,800 -1,653 Descending FlightAware ADS-B
Mon 05:27:45 PM 41.7660 -76.8170 21° North 365 420 18,200 -1,328 Descending FlightAware ADS-B
Mon 05:28:55 PM 41.8770 -76.7590 21° North 351 404 17,100 -673 Descending FlightAware ADS-B
Mon 05:29:23 PM 41.9200 -76.7370 21° North 352 405 17,100  Level FlightAware ADS-B
Mon 05:29:56 PM 41.9700 -76.7100 21° North 349 402 17,100  Level FlightAware ADS-B
Mon 05:30:16 PM 41.9900 -76.6870 53° Northeast 361 415 17,100  Level FlightAware ADS-B
Mon 05:31:07 PM 42.0150 -76.5690 80° East 367 422 17,100 -31 Level FlightAware ADS-B
Mon 05:33:31 PM 42.1690 -76.3950 13° North 347 399 17,000 -719 Descending FlightAware ADS-B
Mon 05:35:34 PM 42.3590 -76.3380 North 332 382 13,900 -1,541 Descending FlightAware ADS-B
Mon 05:35:59 PM 42.4030 -76.3400 357° North 325 374 13,200 -1,731 Descending FlightAware ADS-B
Mon 05:36:26 PM 42.4430 -76.3430 357° North 323 372 12,400 -1,652 Descending FlightAware ADS-B
Mon 05:37:08 PM 42.5040 -76.3410 15° North 322 371 11,300 -987 Descending FlightAware ADS-B
Mon 05:37:45 PM 42.5520 -76.3180 17° North 313 360 11,100 -231 Descending FlightAware ADS-B
Mon 05:38:52 PM 42.6383 -76.2817 17° North 318 366 10,900 -564 Descending Boston Center
Mon 05:39:42 PM 42.7003 -76.2261 33° Northeast 297 342 10,000 -1,065 Descending Boston Center
Mon 05:39:54 PM 42.7078 -76.2211 26° Northeast 306 352 9,800 -2,100 Descending Boston Center
Mon 05:40:42 PM 42.7736 -76.1592 35° Northeast 290 334 7,900 -2,129 Descending Boston Center
Mon 05:40:56 PM 42.7883 -76.1469 31° Northeast 294 338 7,600 -1,522 Descending Boston Center
Mon 05:41:49 PM 42.8461 -76.0978 32° Northeast 290 334 6,200 -1,512 Descending Boston Center
Mon 05:42:59 PM 42.9247 -76.0372 29° Northeast 285 328 4,500 -1,039 Descending Boston Center
Mon 05:43:56 PM 42.9900 -76.0058 19° North 241 277 4,000 -623 Descending Boston Center
Mon 05:44:45 PM 43.0364 -75.9972 North 203 234 3,400 -818 Descending Boston Center
Mon 05:45:02 PM 43.0500 -75.9939 10° North 236 272 3,100 -1,400 Descending Boston Center
Mon 05:45:45 PM 43.0878 -76.0103 342° North 160 184 2,000 -1,258 Descending Boston Center
Mon 05:46:04 PM 43.0942 -76.0122 347° North 199 229 1,800 -885 Descending Boston Center
Mon 05:46:46 PM 43.1083 -76.0519 296° West 137 158 1,100 -787 Descending Boston Center
Mon 05:47:05 PM 43.1108 -76.0589 296° West 167 192 1,000 -519 Descending Boston Center
Mon 05:48:07 PM 43.1086 -76.1106 267° West 148 170 400 -581 Descending Boston Center

Login

Don't have an account? Register now (free) for customized features, flight alerts, and more!